createdAt,value
2022-08-03T00:02:34.892Z,92094.91
2022-08-03T00:05:38.346Z,92102.84
2022-08-03T00:08:41.102Z,92111.59
2022-08-03T00:11:44.204Z,92102.28
2022-08-03T00:14:47.226Z,92096.88
2022-08-03T00:17:53.594Z,92101.50
2022-08-03T00:20:57.112Z,92113.00
2022-08-03T00:24:00.728Z,92121.84
2022-08-03T00:27:03.780Z,92109.06
2022-08-03T00:30:07.682Z,92086.75
2022-08-03T00:33:11.398Z,92090.91
2022-08-03T00:36:14.399Z,92096.84
2022-08-03T00:39:18.109Z,92095.19
2022-08-03T00:42:21.153Z,92086.88
2022-08-03T00:45:26.149Z,92100.75
2022-08-03T00:48:33.352Z,92100.94
2022-08-03T00:51:36.924Z,92099.50
2022-08-03T00:54:40.724Z,92096.03
2022-08-03T00:57:44.416Z,92100.66
2022-08-03T01:00:47.492Z,92094.03
2022-08-03T01:03:50.511Z,92092.88
2022-08-03T01:07:14.620Z,92078.59
2022-08-03T01:10:23.665Z,92091.31
2022-08-03T01:14:04.519Z,92092.59
2022-08-03T01:17:14.089Z,92087.38
2022-08-03T01:20:19.102Z,92097.16
2022-08-03T01:23:47.920Z,92100.34
2022-08-03T01:27:06.643Z,92108.06
2022-08-03T01:30:12.591Z,92107.47
2022-08-03T01:33:27.290Z,92108.97
2022-08-03T01:36:37.168Z,92102.59
2022-08-03T01:39:41.798Z,92106.16
2022-08-03T01:42:47.147Z,92102.25
2022-08-03T01:45:50.600Z,92111.78
2022-08-03T01:48:54.570Z,92113.50
2022-08-03T01:52:04.379Z,92124.81
2022-08-03T01:55:10.067Z,92121.91
2022-08-03T01:58:16.169Z,92135.19
2022-08-03T02:01:23.626Z,92132.41
2022-08-03T02:04:28.646Z,92130.19
2022-08-03T02:07:35.281Z,92141.03
2022-08-03T02:10:41.325Z,92143.56
2022-08-03T02:13:46.637Z,92144.34
2022-08-03T02:16:50.368Z,92151.81
2022-08-03T02:19:54.701Z,92146.75
2022-08-03T02:22:57.395Z,92149.59
2022-08-03T02:26:05.502Z,92141.31
2022-08-03T02:29:20.901Z,92157.38
2022-08-03T02:32:47.783Z,92161.59
2022-08-03T02:35:52.610Z,92165.41
2022-08-03T02:38:59.791Z,92151.94
2022-08-03T02:42:03.463Z,92145.66
2022-08-03T02:45:13.250Z,92148.38
2022-08-03T02:48:21.062Z,92151.88
2022-08-03T02:51:24.700Z,92143.84
2022-08-03T02:54:29.174Z,92147.88
2022-08-03T02:57:35.731Z,92143.97
2022-08-03T03:00:39.918Z,92140.53
2022-08-03T03:03:45.076Z,92146.53
2022-08-03T03:06:49.648Z,92149.00
2022-08-03T03:09:53.483Z,92153.00
2022-08-03T03:12:58.739Z,92161.75
2022-08-03T03:16:05.359Z,92163.22
2022-08-03T03:19:10.036Z,92155.75
2022-08-03T03:22:15.439Z,92160.50
2022-08-03T03:25:20.139Z,92158.84
2022-08-03T03:28:26.060Z,92147.19
2022-08-03T03:31:29.393Z,92139.03
2022-08-03T03:34:32.759Z,92139.03
2022-08-03T03:37:36.834Z,92134.06
2022-08-03T03:40:40.141Z,92128.22
2022-08-03T03:43:44.296Z,92123.22
2022-08-03T03:46:47.018Z,92128.88
2022-08-03T03:49:52.480Z,92124.03
2022-08-03T03:52:55.516Z,92141.47
2022-08-03T03:56:02.358Z,92164.03
2022-08-03T03:59:06.310Z,92187.25
2022-08-03T04:02:10.559Z,92195.88
2022-08-03T04:05:33.198Z,92200.75
2022-08-03T04:08:54.974Z,92195.66
2022-08-03T04:12:01.687Z,92195.84
2022-08-03T04:15:06.954Z,92183.28
2022-08-03T04:18:14.509Z,92169.91
2022-08-03T04:21:20.552Z,92140.28
2022-08-03T04:24:26.461Z,92122.88
2022-08-03T04:27:35.683Z,92126.41
2022-08-03T04:30:40.862Z,92137.22
2022-08-03T04:33:45.672Z,92134.09
2022-08-03T04:36:55.530Z,92138.47
2022-08-03T04:40:03.783Z,92123.91
2022-08-03T04:43:08.734Z,92119.94
2022-08-03T04:46:12.381Z,92117.38
2022-08-03T04:49:15.610Z,92127.31
2022-08-03T04:52:18.933Z,92142.75
2022-08-03T04:55:29.246Z,92151.56
2022-08-03T04:58:32.376Z,92156.97
2022-08-03T05:01:35.465Z,92165.06
2022-08-03T05:04:41.405Z,92164.66
2022-08-03T05:07:45.272Z,92165.47
2022-08-03T05:10:48.571Z,92162.50
2022-08-03T05:13:51.642Z,92147.94
2022-08-03T05:16:54.676Z,92142.91
2022-08-03T05:19:58.181Z,92154.72
2022-08-03T05:23:02.535Z,92171.13
2022-08-03T05:26:05.659Z,92189.19
2022-08-03T05:29:09.132Z,92183.94
2022-08-03T05:32:12.187Z,92191.63
2022-08-03T05:36:00.477Z,92194.75
2022-08-03T05:38:38.266Z,92204.97
2022-08-03T05:41:41.257Z,92207.94
2022-08-03T05:44:44.379Z,92210.00
2022-08-03T05:47:48.547Z,92206.09
2022-08-03T05:50:51.253Z,92208.97
2022-08-03T05:53:54.325Z,92216.38
2022-08-03T05:56:57.367Z,92213.66
2022-08-03T06:00:00.666Z,92210.78
2022-08-03T06:03:03.905Z,92205.72
2022-08-03T06:06:07.047Z,92193.34
2022-08-03T06:09:13.234Z,92198.16
2022-08-03T06:12:16.580Z,92204.84
2022-08-03T06:15:19.931Z,92216.06
2022-08-03T06:18:24.644Z,92215.59
2022-08-03T06:21:27.699Z,92202.97
2022-08-03T06:24:31.001Z,92201.44
2022-08-03T06:27:37.237Z,92196.22
2022-08-03T06:30:41.332Z,92204.59
2022-08-03T06:34:30.808Z,92204.38
2022-08-03T06:37:07.373Z,92210.06
2022-08-03T06:40:13.913Z,92216.53
2022-08-03T06:43:17.194Z,92182.28
2022-08-03T06:46:20.539Z,92175.94
2022-08-03T06:49:23.745Z,92180.53
2022-08-03T06:52:37.640Z,92172.91
2022-08-03T06:55:42.466Z,92163.56
2022-08-03T06:58:45.719Z,92151.00
2022-08-03T07:01:48.768Z,92146.78
2022-08-03T07:04:52.664Z,92144.09
2022-08-03T07:07:57.509Z,92149.34
2022-08-03T07:11:00.506Z,92152.97
2022-08-03T07:14:03.617Z,92151.06
2022-08-03T07:17:11.806Z,92155.72
2022-08-03T07:20:15.830Z,92165.91
2022-08-03T07:23:19.496Z,92169.44
2022-08-03T07:26:22.564Z,92170.34
2022-08-03T07:29:25.678Z,92173.59
2022-08-03T07:32:32.003Z,92177.00
2022-08-03T07:35:35.067Z,92194.97
2022-08-03T07:38:38.215Z,92204.56
2022-08-03T07:41:41.369Z,92227.53
2022-08-03T07:44:45.017Z,92239.34
2022-08-03T07:47:53.218Z,92252.75
2022-08-03T07:50:56.943Z,92261.13
2022-08-03T07:54:01.414Z,92249.16
2022-08-03T07:57:04.586Z,92243.94
2022-08-03T08:00:14.419Z,92201.22
2022-08-03T08:03:17.691Z,92161.19
2022-08-03T08:06:21.538Z,92146.22
2022-08-03T08:09:24.657Z,92165.25
2022-08-03T08:12:28.416Z,92174.66
2022-08-03T08:15:32.337Z,92174.19
2022-08-03T08:18:35.490Z,92154.16
2022-08-03T08:21:53.063Z,92158.94
2022-08-03T08:25:01.848Z,92165.41
2022-08-03T08:28:31.872Z,92164.63
2022-08-03T08:31:28.274Z,92149.66
2022-08-03T08:34:31.325Z,92142.25
2022-08-03T08:37:36.077Z,92143.69
2022-08-03T08:40:39.120Z,92127.75
2022-08-03T08:43:44.130Z,92135.81
2022-08-03T08:46:48.398Z,92135.19
2022-08-03T08:50:08.837Z,92132.34
2022-08-03T08:53:17.611Z,92142.91
2022-08-03T08:56:28.445Z,92132.28
2022-08-03T08:59:48.905Z,92140.38
2022-08-03T09:02:52.712Z,92134.09
2022-08-03T09:05:56.583Z,92138.06
2022-08-03T09:08:59.761Z,92153.91
2022-08-03T09:12:27.169Z,92155.09
2022-08-03T09:15:34.260Z,92158.94
2022-08-03T09:18:37.710Z,92153.72
2022-08-03T09:21:40.847Z,92152.38
2022-08-03T09:25:24.290Z,92154.03
2022-08-03T09:29:00.435Z,92155.09
2022-08-03T09:32:05.057Z,92160.59
2022-08-03T09:35:09.471Z,92167.44
2022-08-03T09:38:15.778Z,92160.03
2022-08-03T09:41:20.397Z,92158.16
2022-08-03T09:44:42.842Z,92160.38
2022-08-03T09:47:45.901Z,92159.94
2022-08-03T09:50:58.623Z,92148.88
2022-08-03T09:54:31.259Z,92152.53
2022-08-03T09:57:34.533Z,92148.41
2022-08-03T10:01:01.619Z,92141.00
2022-08-03T10:04:05.406Z,92138.16
2022-08-03T10:07:11.142Z,92132.94
2022-08-03T10:10:30.318Z,92117.00
2022-08-03T10:13:35.230Z,92115.28
2022-08-03T10:16:41.604Z,92111.97
2022-08-03T10:19:45.193Z,92101.41
2022-08-03T10:22:48.582Z,92101.72
2022-08-03T10:25:58.811Z,92119.88
2022-08-03T10:29:04.811Z,92111.06
2022-08-03T10:32:41.539Z,92110.28
2022-08-03T10:35:46.132Z,92109.34
2022-08-03T10:38:57.651Z,92117.38
2022-08-03T10:42:02.716Z,92114.09
2022-08-03T10:45:10.810Z,92116.44
2022-08-03T10:48:14.749Z,92100.53
2022-08-03T10:51:18.176Z,92102.25
2022-08-03T10:54:58.615Z,92109.66
2022-08-03T10:58:07.940Z,92113.09
2022-08-03T11:01:14.397Z,92116.25
2022-08-03T11:04:22.288Z,92117.97
2022-08-03T11:07:26.436Z,92131.19
2022-08-03T11:10:33.360Z,92138.78
2022-08-03T11:13:36.544Z,92134.16
2022-08-03T11:16:42.218Z,92133.84
2022-08-03T11:19:57.926Z,92136.69
2022-08-03T11:23:02.295Z,92139.00
2022-08-03T11:26:12.132Z,92148.63
2022-08-03T11:29:31.772Z,92147.66
2022-08-03T11:32:46.551Z,92161.34
2022-08-03T11:36:03.104Z,92164.78
2022-08-03T11:39:17.203Z,92176.44
2022-08-03T11:42:40.815Z,92176.88
2022-08-03T11:46:02.811Z,92168.31
2022-08-03T11:49:10.931Z,92175.00
2022-08-03T11:52:15.785Z,92181.88
2022-08-03T11:55:22.442Z,92180.56
2022-08-03T11:59:16.989Z,92176.06
2022-08-03T12:01:50.310Z,92180.72
2022-08-03T12:04:55.095Z,92188.69
2022-08-03T12:08:06.173Z,92185.31
2022-08-03T12:11:13.529Z,92196.59
2022-08-03T12:14:48.980Z,92207.75
2022-08-03T12:17:43.751Z,92229.28
2022-08-03T12:20:47.350Z,92235.53
2022-08-03T12:23:51.185Z,92235.81
2022-08-03T12:26:59.032Z,92235.63
2022-08-03T12:30:04.412Z,92219.66
2022-08-03T12:33:23.786Z,92234.41
2022-08-03T12:36:29.311Z,92232.03
2022-08-03T12:39:32.371Z,92221.88
2022-08-03T12:42:37.216Z,92215.03
2022-08-03T12:45:40.422Z,92208.34
2022-08-03T12:49:11.759Z,92203.25
2022-08-03T12:52:16.894Z,92192.63
2022-08-03T12:55:24.047Z,92203.03
2022-08-03T12:58:35.931Z,92185.28
2022-08-03T13:01:49.151Z,92185.94
2022-08-03T13:04:58.636Z,92183.53
2022-08-03T13:08:01.807Z,92182.28
2022-08-03T13:11:47.565Z,92181.22
2022-08-03T13:14:49.533Z,92183.78
2022-08-03T13:17:53.434Z,92175.13
2022-08-03T13:20:56.504Z,92177.03
2022-08-03T13:23:59.530Z,92177.31
2022-08-03T13:28:03.922Z,92176.66
2022-08-03T13:30:29.812Z,92186.69
2022-08-03T13:33:33.741Z,92181.63
2022-08-03T13:37:06.399Z,92185.06
2022-08-03T13:40:02.769Z,92177.97
2022-08-03T13:43:06.744Z,92185.44
2022-08-03T13:46:09.743Z,92189.38
2022-08-03T13:49:12.866Z,92190.66
2022-08-03T13:52:16.488Z,92183.28
2022-08-03T13:55:19.701Z,92174.78
2022-08-03T13:58:22.855Z,92170.97
2022-08-03T14:01:54.507Z,92166.41
2022-08-03T14:04:49.786Z,92169.22
2022-08-03T14:07:52.841Z,92167.94
2022-08-03T14:11:01.284Z,92170.84
2022-08-03T14:14:04.468Z,92171.88
2022-08-03T14:17:07.507Z,92175.31
2022-08-03T14:20:38.897Z,92170.22
2022-08-03T14:23:40.486Z,92167.09
2022-08-03T14:26:44.610Z,92173.91
2022-08-03T14:29:47.553Z,92163.41
2022-08-03T14:32:50.481Z,92160.84
2022-08-03T14:35:54.076Z,92158.44
2022-08-03T14:39:01.067Z,92158.72
2022-08-03T14:42:04.607Z,92166.72
2022-08-03T14:45:09.656Z,92155.91
2022-08-03T14:50:32.161Z,92169.88
2022-08-03T14:51:53.376Z,92161.50
2022-08-03T14:54:57.298Z,92164.69
2022-08-03T14:58:03.174Z,92159.59
2022-08-03T15:02:04.650Z,92159.09
2022-08-03T15:04:31.009Z,92159.47
2022-08-03T15:07:34.115Z,92167.59
2022-08-03T15:10:40.555Z,92168.22
2022-08-03T15:13:47.704Z,92174.59
2022-08-03T15:16:51.203Z,92172.44
2022-08-03T15:20:03.796Z,92167.69
2022-08-03T15:23:11.968Z,92165.56
2022-08-03T15:26:30.833Z,92159.19
2022-08-03T15:30:04.715Z,92162.47
2022-08-03T15:33:00.148Z,92166.28
2022-08-03T15:36:03.655Z,92158.78
2022-08-03T15:39:07.471Z,92168.03
2022-08-03T15:42:10.561Z,92153.31
2022-08-03T15:45:13.622Z,92147.50
2022-08-03T15:48:21.071Z,92152.41
2022-08-03T15:51:29.650Z,92143.63
2022-08-03T15:54:32.656Z,92132.81
2022-08-03T15:59:03.989Z,92137.06
2022-08-03T16:00:59.717Z,92139.31
2022-08-03T16:04:02.893Z,92136.53
2022-08-03T16:07:07.154Z,92138.50
2022-08-03T16:10:19.275Z,92143.03
2022-08-03T16:13:23.025Z,92134.56
2022-08-03T16:16:46.026Z,92137.47
2022-08-03T16:19:49.844Z,92135.16
2022-08-03T16:22:52.988Z,92137.19
2022-08-03T16:25:56.051Z,92131.88
2022-08-03T16:28:59.057Z,92130.56
2022-08-03T16:32:09.615Z,92129.06
2022-08-03T16:35:19.167Z,92128.22
2022-08-03T16:38:23.539Z,92122.88
2022-08-03T16:41:27.026Z,92120.97
2022-08-03T16:44:50.534Z,92108.94
2022-08-03T16:48:01.622Z,92112.88
2022-08-03T16:51:09.681Z,92109.03
2022-08-03T16:54:14.268Z,92108.94
2022-08-03T16:57:29.724Z,92097.81
2022-08-03T17:00:41.597Z,92103.28
2022-08-03T17:04:02.222Z,92099.34
2022-08-03T17:07:07.702Z,92096.88
2022-08-03T17:10:13.535Z,92091.97
2022-08-03T17:13:21.683Z,92086.78
2022-08-03T17:16:25.833Z,92082.97
2022-08-03T17:19:32.275Z,92087.75
2022-08-03T17:22:40.266Z,92084.72
2022-08-03T17:26:01.994Z,92068.88
2022-08-03T17:29:12.528Z,92066.59
2022-08-03T17:32:21.698Z,92066.28
2022-08-03T17:35:36.577Z,92057.16
2022-08-03T17:38:42.573Z,92048.06
2022-08-03T17:41:48.941Z,92044.31
2022-08-03T17:44:54.315Z,92036.72
2022-08-03T17:47:59.630Z,92028.13
2022-08-03T17:51:17.293Z,92029.91
2022-08-03T17:54:31.521Z,92029.03
2022-08-03T17:58:02.025Z,92035.41
2022-08-03T18:01:59.126Z,92031.84
2022-08-03T18:05:16.244Z,92032.88
2022-08-03T18:08:30.873Z,92028.06
2022-08-03T18:11:39.024Z,92024.91
2022-08-03T18:14:57.378Z,92021.72
2022-08-03T18:18:10.837Z,92019.19
2022-08-03T18:21:16.677Z,92023.88
2022-08-03T18:24:21.565Z,92015.16
2022-08-03T18:27:45.552Z,92018.28
2022-08-03T18:34:33.091Z,92008.19
2022-08-03T18:37:52.160Z,91997.56
2022-08-03T18:40:56.205Z,91996.91
2022-08-03T18:44:06.870Z,91991.59
2022-08-03T18:47:50.473Z,91987.56
2022-08-03T18:51:28.518Z,91988.28
2022-08-03T18:55:01.169Z,91993.09
2022-08-03T18:58:29.244Z,91989.94
2022-08-03T19:01:59.708Z,91989.44
2022-08-03T19:05:08.783Z,91985.59
2022-08-03T19:08:28.686Z,91979.41
2022-08-03T19:12:13.189Z,91984.72
2022-08-03T19:15:10.522Z,91980.81
2022-08-03T19:18:18.579Z,91987.53
2022-08-03T19:21:23.521Z,91979.78
2022-08-03T19:24:27.907Z,91989.03
2022-08-03T19:27:32.296Z,91981.19
2022-08-03T19:34:03.239Z,91973.84
2022-08-03T19:37:10.868Z,91977.13
2022-08-03T19:40:19.772Z,91975.84
2022-08-03T19:43:24.995Z,91978.66
2022-08-03T19:46:44.760Z,91968.75
2022-08-03T19:50:05.098Z,91972.94
2022-08-03T19:53:14.001Z,91970.94
2022-08-03T19:56:23.498Z,91964.88
2022-08-03T19:59:28.147Z,91970.19
2022-08-03T20:02:31.448Z,91962.84
2022-08-03T20:05:44.863Z,91960.03
2022-08-03T20:08:54.885Z,91944.97
2022-08-03T20:11:58.328Z,91942.56
2022-08-03T20:15:01.872Z,91936.84
2022-08-03T20:18:04.930Z,91933.03
2022-08-03T20:21:15.217Z,91941.66
2022-08-03T20:24:27.396Z,91937.59
2022-08-03T20:28:06.668Z,91935.06
2022-08-03T20:30:59.755Z,91931.66
2022-08-03T20:34:03.163Z,91944.06
2022-08-03T20:37:06.255Z,91947.34
2022-08-03T20:40:12.996Z,91940.91
2022-08-03T20:43:19.865Z,91939.25
2022-08-03T20:46:31.032Z,91930.75
2022-08-03T20:49:45.759Z,91925.69
2022-08-03T20:52:50.540Z,91922.00
2022-08-03T20:56:02.303Z,91920.09
2022-08-03T20:59:14.923Z,91926.03
2022-08-03T21:02:19.736Z,91919.78
2022-08-03T21:05:51.266Z,91921.69
2022-08-03T21:09:05.662Z,91910.03
2022-08-03T21:12:18.432Z,91913.84
2022-08-03T21:13:02.301Z,91979.16
2022-08-03T21:13:04.350Z,92010.94
2022-08-03T21:16:03.015Z,91916.00
2022-08-03T21:18:55.469Z,91923.75
2022-08-03T21:21:59.619Z,91920.56
2022-08-03T21:25:09.042Z,91920.56
2022-08-03T21:28:13.454Z,91922.47
2022-08-03T21:31:26.841Z,91917.13
2022-08-03T21:34:31.010Z,91919.53
2022-08-03T21:37:34.255Z,91922.00
2022-08-03T21:40:37.678Z,91908.56
2022-08-03T21:43:40.737Z,91915.53
2022-08-03T21:46:44.764Z,91916.06
2022-08-03T21:50:08.811Z,91913.03
2022-08-03T21:53:15.236Z,91929.50
2022-08-03T21:56:20.629Z,91904.41
2022-08-03T21:59:24.293Z,91909.59
2022-08-03T22:02:32.507Z,91904.81
2022-08-03T22:05:43.495Z,91910.13
2022-08-03T22:08:48.544Z,91916.47
2022-08-03T22:11:56.631Z,91931.41
2022-08-03T22:15:02.774Z,91928.63
2022-08-03T22:18:06.224Z,91936.47
2022-08-03T22:21:12.554Z,91943.59
2022-08-03T22:24:19.796Z,91944.84
2022-08-03T22:27:30.837Z,91926.75
2022-08-03T22:30:34.300Z,91928.88
2022-08-03T22:33:38.666Z,91935.59
2022-08-03T22:36:42.366Z,91937.50
2022-08-03T22:39:46.153Z,91937.28
2022-08-03T22:42:52.719Z,91940.81
2022-08-03T22:46:09.803Z,91944.47
2022-08-03T22:49:16.052Z,91949.22
2022-08-03T22:52:19.318Z,91928.13
2022-08-03T22:55:24.942Z,91919.03
2022-08-03T22:58:28.288Z,91919.91
2022-08-03T23:01:37.980Z,91924.34
2022-08-03T23:04:42.412Z,91919.03
2022-08-03T23:07:46.229Z,91912.31
2022-08-03T23:10:50.715Z,91913.56
2022-08-03T23:13:56.119Z,91908.75
2022-08-03T23:17:03.950Z,91912.81
2022-08-03T23:20:09.467Z,91913.44
2022-08-03T23:23:13.014Z,91909.03
2022-08-03T23:26:17.908Z,91906.47
2022-08-03T23:29:22.527Z,91909.13
2022-08-03T23:32:29.076Z,91909.78
2022-08-03T23:36:29.004Z,91904.34
2022-08-03T23:39:15.351Z,91898.88
2022-08-03T23:42:20.836Z,91909.13
2022-08-03T23:45:25.532Z,91907.25
2022-08-03T23:48:28.912Z,91907.38
2022-08-03T23:51:37.679Z,91912.06
2022-08-03T23:55:08.335Z,91904.19
2022-08-03T23:58:32.824Z,91906.97
